sensor_id;sensor_type;location;lat;lon;timestamp;P1;durP1;ratioP1;P2;durP2;ratioP2
38715;SDS011;24833;49.324;8.694;2022-12-10T00:01:27;11.68;;;8.55;;
38715;SDS011;24833;49.324;8.694;2022-12-10T00:03:57;12.20;;;8.40;;
38715;SDS011;24833;49.324;8.694;2022-12-10T00:06:26;10.82;;;8.50;;
38715;SDS011;24833;49.324;8.694;2022-12-10T00:08:56;12.15;;;8.27;;
38715;SDS011;24833;49.324;8.694;2022-12-10T00:11:24;13.32;;;9.48;;
38715;SDS011;24833;49.324;8.694;2022-12-10T00:13:51;12.23;;;8.60;;
38715;SDS011;24833;49.324;8.694;2022-12-10T00:16:19;11.52;;;8.70;;
38715;SDS011;24833;49.324;8.694;2022-12-10T00:18:49;12.40;;;8.35;;
38715;SDS011;24833;49.324;8.694;2022-12-10T00:21:19;12.05;;;8.45;;
38715;SDS011;24833;49.324;8.694;2022-12-10T00:23:53;11.32;;;8.57;;
38715;SDS011;24833;49.324;8.694;2022-12-10T00:26:25;12.20;;;9.38;;
38715;SDS011;24833;49.324;8.694;2022-12-10T00:28:56;11.10;;;8.55;;
38715;SDS011;24833;49.324;8.694;2022-12-10T00:31:31;12.55;;;8.73;;
38715;SDS011;24833;49.324;8.694;2022-12-10T00:34:03;11.32;;;8.15;;
38715;SDS011;24833;49.324;8.694;2022-12-10T00:36:40;11.95;;;8.48;;
38715;SDS011;24833;49.324;8.694;2022-12-10T00:39:15;12.55;;;8.63;;
38715;SDS011;24833;49.324;8.694;2022-12-10T00:41:45;10.55;;;7.80;;
38715;SDS011;24833;49.324;8.694;2022-12-10T00:44:13;11.50;;;8.25;;
38715;SDS011;24833;49.324;8.694;2022-12-10T00:46:41;13.75;;;7.97;;
38715;SDS011;24833;49.324;8.694;2022-12-10T00:49:09;12.35;;;8.85;;
38715;SDS011;24833;49.324;8.694;2022-12-10T00:51:36;10.23;;;7.90;;
38715;SDS011;24833;49.324;8.694;2022-12-10T00:54:04;10.93;;;8.50;;
38715;SDS011;24833;49.324;8.694;2022-12-10T00:56:31;10.73;;;8.52;;
38715;SDS011;24833;49.324;8.694;2022-12-10T00:58:59;11.35;;;8.43;;
38715;SDS011;24833;49.324;8.694;2022-12-10T01:01:32;12.25;;;8.85;;
38715;SDS011;24833;49.324;8.694;2022-12-10T01:04:09;10.38;;;8.20;;
38715;SDS011;24833;49.324;8.694;2022-12-10T01:06:47;11.77;;;9.13;;
38715;SDS011;24833;49.324;8.694;2022-12-10T01:09:20;12.25;;;9.07;;
38715;SDS011;24833;49.324;8.694;2022-12-10T01:11:53;10.90;;;7.93;;
38715;SDS011;24833;49.324;8.694;2022-12-10T01:14:26;11.85;;;8.98;;
38715;SDS011;24833;49.324;8.694;2022-12-10T01:16:57;11.80;;;9.10;;
38715;SDS011;24833;49.324;8.694;2022-12-10T01:19:29;10.73;;;8.48;;
38715;SDS011;24833;49.324;8.694;2022-12-10T01:22:00;11.90;;;8.75;;
38715;SDS011;24833;49.324;8.694;2022-12-10T01:24:28;10.10;;;7.95;;
38715;SDS011;24833;49.324;8.694;2022-12-10T01:26:56;11.35;;;8.48;;
38715;SDS011;24833;49.324;8.694;2022-12-10T01:29:23;12.98;;;8.68;;
38715;SDS011;24833;49.324;8.694;2022-12-10T01:31:51;11.57;;;7.95;;
38715;SDS011;24833;49.324;8.694;2022-12-10T01:34:20;10.95;;;8.05;;
38715;SDS011;24833;49.324;8.694;2022-12-10T01:36:51;10.77;;;8.40;;
38715;SDS011;24833;49.324;8.694;2022-12-10T01:39:20;11.55;;;8.63;;
38715;SDS011;24833;49.324;8.694;2022-12-10T01:41:53;13.95;;;9.05;;
38715;SDS011;24833;49.324;8.694;2022-12-10T01:46:50;12.15;;;8.50;;
38715;SDS011;24833;49.324;8.694;2022-12-10T01:49:21;10.23;;;8.23;;
38715;SDS011;24833;49.324;8.694;2022-12-10T01:52:01;8.93;;;6.67;;
38715;SDS011;24833;49.324;8.694;2022-12-10T01:54:31;13.07;;;8.10;;
38715;SDS011;24833;49.324;8.694;2022-12-10T01:57:17;11.02;;;7.45;;
38715;SDS011;24833;49.324;8.694;2022-12-10T01:59:54;10.50;;;7.70;;
38715;SDS011;24833;49.324;8.694;2022-12-10T02:02:45;10.68;;;7.85;;
38715;SDS011;24833;49.324;8.694;2022-12-10T02:05:28;11.60;;;8.30;;
38715;SDS011;24833;49.324;8.694;2022-12-10T02:08:10;11.02;;;7.63;;
38715;SDS011;24833;49.324;8.694;2022-12-10T02:11:04;10.18;;;7.68;;
38715;SDS011;24833;49.324;8.694;2022-12-10T02:16:34;11.63;;;8.35;;
38715;SDS011;24833;49.324;8.694;2022-12-10T02:21:40;12.50;;;8.55;;
38715;SDS011;24833;49.324;8.694;2022-12-10T02:24:12;14.10;;;8.73;;
38715;SDS011;24833;49.324;8.694;2022-12-10T02:29:36;10.77;;;7.95;;
38715;SDS011;24833;49.324;8.694;2022-12-10T02:32:06;10.55;;;7.95;;
38715;SDS011;24833;49.324;8.694;2022-12-10T02:34:40;11.32;;;8.07;;
38715;SDS011;24833;49.324;8.694;2022-12-10T02:37:31;12.40;;;8.40;;
38715;SDS011;24833;49.324;8.694;2022-12-10T02:40:06;10.90;;;8.07;;
38715;SDS011;24833;49.324;8.694;2022-12-10T02:42:45;10.48;;;7.43;;
38715;SDS011;24833;49.324;8.694;2022-12-10T02:45:18;10.77;;;8.02;;
38715;SDS011;24833;49.324;8.694;2022-12-10T02:50:18;9.98;;;7.40;;
38715;SDS011;24833;49.324;8.694;2022-12-10T02:52:49;12.07;;;8.05;;
38715;SDS011;24833;49.324;8.694;2022-12-10T02:55:16;13.15;;;9.00;;
38715;SDS011;24833;49.324;8.694;2022-12-10T02:58:11;13.05;;;8.43;;
38715;SDS011;24833;49.324;8.694;2022-12-10T03:01:13;10.85;;;8.15;;
38715;SDS011;24833;49.324;8.694;2022-12-10T03:04:05;12.63;;;8.32;;
38715;SDS011;24833;49.324;8.694;2022-12-10T03:06:45;10.57;;;7.65;;
38715;SDS011;24833;49.324;8.694;2022-12-10T03:12:08;11.45;;;8.05;;
38715;SDS011;24833;49.324;8.694;2022-12-10T03:15:03;12.45;;;8.25;;
38715;SDS011;24833;49.324;8.694;2022-12-10T03:17:35;10.45;;;8.48;;
38715;SDS011;24833;49.324;8.694;2022-12-10T03:20:06;14.43;;;10.05;;
38715;SDS011;24833;49.324;8.694;2022-12-10T03:22:38;11.60;;;8.48;;
38715;SDS011;24833;49.324;8.694;2022-12-10T03:25:09;10.45;;;8.45;;
38715;SDS011;24833;49.324;8.694;2022-12-10T03:27:40;13.13;;;9.18;;
38715;SDS011;24833;49.324;8.694;2022-12-10T03:30:08;13.82;;;9.35;;
38715;SDS011;24833;49.324;8.694;2022-12-10T03:32:36;14.13;;;9.65;;
38715;SDS011;24833;49.324;8.694;2022-12-10T03:35:03;11.75;;;8.60;;
38715;SDS011;24833;49.324;8.694;2022-12-10T03:37:32;12.98;;;9.07;;
38715;SDS011;24833;49.324;8.694;2022-12-10T03:40:00;14.43;;;10.07;;
38715;SDS011;24833;49.324;8.694;2022-12-10T03:42:29;12.45;;;8.93;;
38715;SDS011;24833;49.324;8.694;2022-12-10T03:44:56;12.25;;;8.70;;
38715;SDS011;24833;49.324;8.694;2022-12-10T03:47:23;14.65;;;9.80;;
38715;SDS011;24833;49.324;8.694;2022-12-10T03:49:51;12.82;;;9.60;;
38715;SDS011;24833;49.324;8.694;2022-12-10T03:52:17;11.68;;;8.98;;
38715;SDS011;24833;49.324;8.694;2022-12-10T03:54:44;14.23;;;10.15;;
38715;SDS011;24833;49.324;8.694;2022-12-10T03:57:11;13.52;;;9.73;;
38715;SDS011;24833;49.324;8.694;2022-12-10T03:59:38;14.07;;;9.75;;
38715;SDS011;24833;49.324;8.694;2022-12-10T04:02:05;15.43;;;10.18;;
38715;SDS011;24833;49.324;8.694;2022-12-10T04:04:32;15.38;;;10.23;;
38715;SDS011;24833;49.324;8.694;2022-12-10T04:06:59;13.82;;;9.60;;
38715;SDS011;24833;49.324;8.694;2022-12-10T04:09:27;13.95;;;10.13;;
38715;SDS011;24833;49.324;8.694;2022-12-10T04:11:57;14.30;;;10.98;;
38715;SDS011;24833;49.324;8.694;2022-12-10T04:14:25;15.15;;;10.30;;
38715;SDS011;24833;49.324;8.694;2022-12-10T04:17:12;13.48;;;9.18;;
38715;SDS011;24833;49.324;8.694;2022-12-10T04:19:39;16.55;;;10.23;;
38715;SDS011;24833;49.324;8.694;2022-12-10T04:22:09;15.23;;;10.70;;
38715;SDS011;24833;49.324;8.694;2022-12-10T04:24:55;13.55;;;10.20;;
38715;SDS011;24833;49.324;8.694;2022-12-10T04:27:41;14.27;;;10.07;;
38715;SDS011;24833;49.324;8.694;2022-12-10T04:30:09;15.13;;;10.55;;
38715;SDS011;24833;49.324;8.694;2022-12-10T04:32:38;14.20;;;9.80;;
38715;SDS011;24833;49.324;8.694;2022-12-10T04:35:05;15.30;;;10.20;;
38715;SDS011;24833;49.324;8.694;2022-12-10T04:37:33;13.63;;;10.25;;
38715;SDS011;24833;49.324;8.694;2022-12-10T04:40:00;16.38;;;10.70;;
38715;SDS011;24833;49.324;8.694;2022-12-10T04:42:28;13.77;;;10.23;;
38715;SDS011;24833;49.324;8.694;2022-12-10T04:44:55;14.45;;;10.50;;
38715;SDS011;24833;49.324;8.694;2022-12-10T04:47:22;16.08;;;10.57;;
38715;SDS011;24833;49.324;8.694;2022-12-10T04:49:49;16.75;;;10.60;;
38715;SDS011;24833;49.324;8.694;2022-12-10T04:52:17;14.70;;;11.02;;
38715;SDS011;24833;49.324;8.694;2022-12-10T04:54:44;13.80;;;9.95;;
38715;SDS011;24833;49.324;8.694;2022-12-10T04:57:11;13.43;;;10.13;;
38715;SDS011;24833;49.324;8.694;2022-12-10T04:59:38;14.32;;;9.75;;
38715;SDS011;24833;49.324;8.694;2022-12-10T05:02:05;13.40;;;9.45;;
38715;SDS011;24833;49.324;8.694;2022-12-10T05:04:33;14.73;;;10.68;;
38715;SDS011;24833;49.324;8.694;2022-12-10T05:07:00;15.57;;;10.55;;
38715;SDS011;24833;49.324;8.694;2022-12-10T05:09:27;16.52;;;10.65;;
38715;SDS011;24833;49.324;8.694;2022-12-10T05:11:54;14.77;;;10.73;;
38715;SDS011;24833;49.324;8.694;2022-12-10T05:14:21;12.40;;;10.00;;
38715;SDS011;24833;49.324;8.694;2022-12-10T05:16:48;14.18;;;10.18;;
38715;SDS011;24833;49.324;8.694;2022-12-10T05:19:17;15.88;;;10.48;;
38715;SDS011;24833;49.324;8.694;2022-12-10T05:21:46;13.68;;;9.95;;
38715;SDS011;24833;49.324;8.694;2022-12-10T05:24:31;12.27;;;9.77;;
38715;SDS011;24833;49.324;8.694;2022-12-10T05:26:59;14.43;;;10.45;;
38715;SDS011;24833;49.324;8.694;2022-12-10T05:29:26;15.10;;;10.68;;
38715;SDS011;24833;49.324;8.694;2022-12-10T05:31:54;15.43;;;10.90;;
38715;SDS011;24833;49.324;8.694;2022-12-10T05:34:21;15.02;;;10.68;;
38715;SDS011;24833;49.324;8.694;2022-12-10T05:36:48;15.13;;;10.38;;
38715;SDS011;24833;49.324;8.694;2022-12-10T05:39:17;14.43;;;10.40;;
38715;SDS011;24833;49.324;8.694;2022-12-10T05:41:44;14.23;;;10.43;;
38715;SDS011;24833;49.324;8.694;2022-12-10T05:44:12;14.68;;;10.35;;
38715;SDS011;24833;49.324;8.694;2022-12-10T05:46:39;14.73;;;10.38;;
38715;SDS011;24833;49.324;8.694;2022-12-10T05:49:06;15.55;;;11.00;;
38715;SDS011;24833;49.324;8.694;2022-12-10T05:51:34;15.13;;;10.32;;
38715;SDS011;24833;49.324;8.694;2022-12-10T05:54:03;13.55;;;10.18;;
38715;SDS011;24833;49.324;8.694;2022-12-10T05:56:33;17.10;;;11.23;;
38715;SDS011;24833;49.324;8.694;2022-12-10T05:59:02;15.00;;;10.63;;
38715;SDS011;24833;49.324;8.694;2022-12-10T06:01:35;14.77;;;10.68;;
38715;SDS011;24833;49.324;8.694;2022-12-10T06:04:02;13.43;;;9.65;;
38715;SDS011;24833;49.324;8.694;2022-12-10T06:06:32;14.32;;;10.07;;
38715;SDS011;24833;49.324;8.694;2022-12-10T06:09:03;14.07;;;10.25;;
38715;SDS011;24833;49.324;8.694;2022-12-10T06:11:31;14.80;;;10.18;;
38715;SDS011;24833;49.324;8.694;2022-12-10T06:13:59;18.02;;;10.88;;
38715;SDS011;24833;49.324;8.694;2022-12-10T06:16:28;14.93;;;10.90;;
38715;SDS011;24833;49.324;8.694;2022-12-10T06:18:55;15.15;;;10.93;;
38715;SDS011;24833;49.324;8.694;2022-12-10T06:21:23;14.63;;;10.77;;
38715;SDS011;24833;49.324;8.694;2022-12-10T06:23:50;16.80;;;11.32;;
38715;SDS011;24833;49.324;8.694;2022-12-10T06:26:19;16.85;;;11.27;;
38715;SDS011;24833;49.324;8.694;2022-12-10T06:28:50;16.23;;;11.95;;
38715;SDS011;24833;49.324;8.694;2022-12-10T06:31:18;16.52;;;11.05;;
38715;SDS011;24833;49.324;8.694;2022-12-10T06:33:45;18.70;;;12.57;;
38715;SDS011;24833;49.324;8.694;2022-12-10T06:36:13;17.98;;;12.52;;
38715;SDS011;24833;49.324;8.694;2022-12-10T06:38:42;18.17;;;11.63;;
38715;SDS011;24833;49.324;8.694;2022-12-10T06:41:11;15.60;;;11.38;;
38715;SDS011;24833;49.324;8.694;2022-12-10T06:43:40;17.17;;;11.98;;
38715;SDS011;24833;49.324;8.694;2022-12-10T06:46:08;15.63;;;11.32;;
38715;SDS011;24833;49.324;8.694;2022-12-10T06:48:40;17.02;;;11.13;;
38715;SDS011;24833;49.324;8.694;2022-12-10T06:51:09;17.25;;;11.38;;
38715;SDS011;24833;49.324;8.694;2022-12-10T06:53:38;15.25;;;10.57;;
38715;SDS011;24833;49.324;8.694;2022-12-10T06:56:07;16.10;;;11.75;;
38715;SDS011;24833;49.324;8.694;2022-12-10T06:58:37;14.98;;;10.82;;
38715;SDS011;24833;49.324;8.694;2022-12-10T07:01:07;16.80;;;10.68;;
38715;SDS011;24833;49.324;8.694;2022-12-10T07:03:37;15.07;;;10.45;;
38715;SDS011;24833;49.324;8.694;2022-12-10T07:06:05;16.27;;;10.65;;
38715;SDS011;24833;49.324;8.694;2022-12-10T07:08:34;15.63;;;10.27;;
38715;SDS011;24833;49.324;8.694;2022-12-10T07:11:06;16.58;;;11.48;;
38715;SDS011;24833;49.324;8.694;2022-12-10T07:13:41;14.68;;;10.15;;
38715;SDS011;24833;49.324;8.694;2022-12-10T07:16:22;13.48;;;9.90;;
38715;SDS011;24833;49.324;8.694;2022-12-10T07:18:52;16.85;;;11.18;;
38715;SDS011;24833;49.324;8.694;2022-12-10T07:21:22;14.88;;;10.07;;
38715;SDS011;24833;49.324;8.694;2022-12-10T07:24:06;16.33;;;11.23;;
38715;SDS011;24833;49.324;8.694;2022-12-10T07:26:40;14.52;;;10.27;;
38715;SDS011;24833;49.324;8.694;2022-12-10T07:29:12;15.48;;;10.88;;
38715;SDS011;24833;49.324;8.694;2022-12-10T07:31:43;15.32;;;10.48;;
38715;SDS011;24833;49.324;8.694;2022-12-10T07:34:10;17.10;;;11.43;;
38715;SDS011;24833;49.324;8.694;2022-12-10T07:36:38;16.73;;;11.45;;
38715;SDS011;24833;49.324;8.694;2022-12-10T07:39:06;18.10;;;11.35;;
38715;SDS011;24833;49.324;8.694;2022-12-10T07:41:35;14.57;;;10.02;;
38715;SDS011;24833;49.324;8.694;2022-12-10T07:44:04;17.48;;;11.45;;
38715;SDS011;24833;49.324;8.694;2022-12-10T07:46:33;17.10;;;11.45;;
38715;SDS011;24833;49.324;8.694;2022-12-10T07:49:00;15.38;;;11.27;;
38715;SDS011;24833;49.324;8.694;2022-12-10T07:51:28;17.33;;;11.85;;
38715;SDS011;24833;49.324;8.694;2022-12-10T07:53:56;17.60;;;11.45;;
38715;SDS011;24833;49.324;8.694;2022-12-10T07:56:24;18.88;;;11.10;;
38715;SDS011;24833;49.324;8.694;2022-12-10T07:58:52;17.17;;;12.23;;
38715;SDS011;24833;49.324;8.694;2022-12-10T08:01:20;16.65;;;10.57;;
38715;SDS011;24833;49.324;8.694;2022-12-10T08:03:52;15.98;;;11.00;;
38715;SDS011;24833;49.324;8.694;2022-12-10T08:06:25;15.95;;;11.32;;
38715;SDS011;24833;49.324;8.694;2022-12-10T08:08:54;17.95;;;11.75;;
38715;SDS011;24833;49.324;8.694;2022-12-10T08:11:22;16.30;;;11.20;;
38715;SDS011;24833;49.324;8.694;2022-12-10T08:13:49;17.70;;;11.55;;
38715;SDS011;24833;49.324;8.694;2022-12-10T08:16:22;18.05;;;12.00;;
38715;SDS011;24833;49.324;8.694;2022-12-10T08:18:54;16.60;;;11.57;;
38715;SDS011;24833;49.324;8.694;2022-12-10T08:21:23;19.23;;;13.52;;
38715;SDS011;24833;49.324;8.694;2022-12-10T08:23:53;18.48;;;13.50;;
38715;SDS011;24833;49.324;8.694;2022-12-10T08:26:22;20.13;;;13.30;;
38715;SDS011;24833;49.324;8.694;2022-12-10T08:28:52;18.48;;;12.65;;
38715;SDS011;24833;49.324;8.694;2022-12-10T08:31:21;20.52;;;12.90;;
38715;SDS011;24833;49.324;8.694;2022-12-10T08:33:50;19.23;;;12.75;;
38715;SDS011;24833;49.324;8.694;2022-12-10T08:36:17;20.15;;;12.93;;
38715;SDS011;24833;49.324;8.694;2022-12-10T08:38:45;20.40;;;13.43;;
38715;SDS011;24833;49.324;8.694;2022-12-10T08:41:13;18.45;;;12.68;;
38715;SDS011;24833;49.324;8.694;2022-12-10T08:43:46;17.42;;;12.98;;
38715;SDS011;24833;49.324;8.694;2022-12-10T08:46:15;23.27;;;13.70;;
38715;SDS011;24833;49.324;8.694;2022-12-10T08:48:42;18.90;;;12.60;;
38715;SDS011;24833;49.324;8.694;2022-12-10T08:51:10;18.63;;;13.35;;
38715;SDS011;24833;49.324;8.694;2022-12-10T08:56:08;18.25;;;11.82;;
38715;SDS011;24833;49.324;8.694;2022-12-10T08:58:35;18.15;;;12.43;;
38715;SDS011;24833;49.324;8.694;2022-12-10T09:01:12;16.85;;;12.40;;
38715;SDS011;24833;49.324;8.694;2022-12-10T09:03:42;21.35;;;14.20;;
38715;SDS011;24833;49.324;8.694;2022-12-10T09:06:12;21.17;;;14.45;;
38715;SDS011;24833;49.324;8.694;2022-12-10T09:08:46;20.67;;;13.65;;
38715;SDS011;24833;49.324;8.694;2022-12-10T09:11:18;20.80;;;14.13;;
38715;SDS011;24833;49.324;8.694;2022-12-10T09:13:50;21.05;;;14.38;;
38715;SDS011;24833;49.324;8.694;2022-12-10T09:16:20;21.20;;;15.07;;
38715;SDS011;24833;49.324;8.694;2022-12-10T09:18:48;17.30;;;13.05;;
38715;SDS011;24833;49.324;8.694;2022-12-10T09:21:16;22.23;;;14.32;;
38715;SDS011;24833;49.324;8.694;2022-12-10T09:23:43;20.35;;;13.88;;
38715;SDS011;24833;49.324;8.694;2022-12-10T09:26:12;20.00;;;13.68;;
38715;SDS011;24833;49.324;8.694;2022-12-10T09:28:42;18.50;;;12.93;;
38715;SDS011;24833;49.324;8.694;2022-12-10T09:31:10;18.05;;;12.75;;
38715;SDS011;24833;49.324;8.694;2022-12-10T09:33:45;19.75;;;12.70;;
38715;SDS011;24833;49.324;8.694;2022-12-10T09:36:15;21.48;;;13.38;;
38715;SDS011;24833;49.324;8.694;2022-12-10T09:38:43;20.25;;;13.27;;
38715;SDS011;24833;49.324;8.694;2022-12-10T09:47:16;17.48;;;12.32;;
38715;SDS011;24833;49.324;8.694;2022-12-10T09:52:52;18.73;;;12.75;;
38715;SDS011;24833;49.324;8.694;2022-12-10T09:55:24;17.70;;;12.38;;
38715;SDS011;24833;49.324;8.694;2022-12-10T09:58:03;17.67;;;12.32;;
38715;SDS011;24833;49.324;8.694;2022-12-10T10:00:37;21.67;;;14.18;;
38715;SDS011;24833;49.324;8.694;2022-12-10T10:03:06;20.45;;;13.63;;
38715;SDS011;24833;49.324;8.694;2022-12-10T10:05:42;16.25;;;11.63;;
38715;SDS011;24833;49.324;8.694;2022-12-10T10:08:23;17.63;;;12.73;;
38715;SDS011;24833;49.324;8.694;2022-12-10T10:11:11;18.95;;;12.35;;
38715;SDS011;24833;49.324;8.694;2022-12-10T10:13:45;20.65;;;12.32;;
38715;SDS011;24833;49.324;8.694;2022-12-10T10:16:26;19.83;;;12.38;;
38715;SDS011;24833;49.324;8.694;2022-12-10T10:19:15;16.83;;;12.18;;
38715;SDS011;24833;49.324;8.694;2022-12-10T10:21:48;17.95;;;12.10;;
38715;SDS011;24833;49.324;8.694;2022-12-10T10:24:20;18.80;;;12.00;;
38715;SDS011;24833;49.324;8.694;2022-12-10T10:27:08;18.77;;;13.13;;
38715;SDS011;24833;49.324;8.694;2022-12-10T10:29:41;17.30;;;12.63;;
38715;SDS011;24833;49.324;8.694;2022-12-10T10:32:21;16.13;;;12.88;;
38715;SDS011;24833;49.324;8.694;2022-12-10T10:35:09;16.63;;;12.65;;
38715;SDS011;24833;49.324;8.694;2022-12-10T10:37:59;19.35;;;13.25;;
38715;SDS011;24833;49.324;8.694;2022-12-10T10:43:17;19.40;;;13.75;;
38715;SDS011;24833;49.324;8.694;2022-12-10T10:48:48;21.67;;;14.75;;
38715;SDS011;24833;49.324;8.694;2022-12-10T10:51:18;20.55;;;14.40;;
38715;SDS011;24833;49.324;8.694;2022-12-10T10:53:50;18.85;;;13.77;;
38715;SDS011;24833;49.324;8.694;2022-12-10T10:56:22;20.33;;;14.27;;
38715;SDS011;24833;49.324;8.694;2022-12-10T11:02:16;21.48;;;15.10;;
38715;SDS011;24833;49.324;8.694;2022-12-10T11:04:57;19.63;;;14.15;;
38715;SDS011;24833;49.324;8.694;2022-12-10T11:08:02;18.70;;;13.40;;
38715;SDS011;24833;49.324;8.694;2022-12-10T11:10:46;19.38;;;13.93;;
38715;SDS011;24833;49.324;8.694;2022-12-10T11:13:25;20.88;;;14.68;;
38715;SDS011;24833;49.324;8.694;2022-12-10T11:15:56;18.40;;;13.95;;
38715;SDS011;24833;49.324;8.694;2022-12-10T11:18:38;21.63;;;14.82;;
38715;SDS011;24833;49.324;8.694;2022-12-10T11:21:19;22.63;;;14.88;;
38715;SDS011;24833;49.324;8.694;2022-12-10T11:23:52;16.92;;;13.43;;
38715;SDS011;24833;49.324;8.694;2022-12-10T11:32:10;18.85;;;13.82;;
38715;SDS011;24833;49.324;8.694;2022-12-10T11:35:19;21.02;;;14.52;;
38715;SDS011;24833;49.324;8.694;2022-12-10T11:38:15;18.58;;;13.13;;
38715;SDS011;24833;49.324;8.694;2022-12-10T11:41:37;19.15;;;13.40;;
38715;SDS011;24833;49.324;8.694;2022-12-10T11:44:22;17.20;;;13.20;;
38715;SDS011;24833;49.324;8.694;2022-12-10T11:50:01;18.58;;;13.30;;
38715;SDS011;24833;49.324;8.694;2022-12-10T11:53:18;23.08;;;13.93;;
38715;SDS011;24833;49.324;8.694;2022-12-10T11:56:31;17.60;;;12.85;;
38715;SDS011;24833;49.324;8.694;2022-12-10T12:05:46;18.55;;;13.30;;
38715;SDS011;24833;49.324;8.694;2022-12-10T12:09:01;18.35;;;13.15;;
38715;SDS011;24833;49.324;8.694;2022-12-10T12:11:59;18.38;;;12.65;;
38715;SDS011;24833;49.324;8.694;2022-12-10T12:15:08;16.90;;;12.32;;
38715;SDS011;24833;49.324;8.694;2022-12-10T12:17:52;18.25;;;12.45;;
38715;SDS011;24833;49.324;8.694;2022-12-10T12:20:38;18.38;;;13.38;;
38715;SDS011;24833;49.324;8.694;2022-12-10T12:23:29;19.10;;;13.30;;
38715;SDS011;24833;49.324;8.694;2022-12-10T12:26:13;17.35;;;12.02;;
38715;SDS011;24833;49.324;8.694;2022-12-10T12:29:06;18.92;;;13.50;;
38715;SDS011;24833;49.324;8.694;2022-12-10T12:31:49;16.80;;;12.15;;
38715;SDS011;24833;49.324;8.694;2022-12-10T12:37:14;16.95;;;12.55;;
38715;SDS011;24833;49.324;8.694;2022-12-10T12:42:36;16.75;;;12.73;;
38715;SDS011;24833;49.324;8.694;2022-12-10T12:45:13;15.18;;;11.88;;
38715;SDS011;24833;49.324;8.694;2022-12-10T12:47:48;16.13;;;10.75;;
38715;SDS011;24833;49.324;8.694;2022-12-10T12:50:34;19.15;;;11.75;;
38715;SDS011;24833;49.324;8.694;2022-12-10T12:53:31;15.32;;;12.00;;
38715;SDS011;24833;49.324;8.694;2022-12-10T12:59:14;15.13;;;10.82;;
38715;SDS011;24833;49.324;8.694;2022-12-10T13:05:18;17.10;;;11.95;;
38715;SDS011;24833;49.324;8.694;2022-12-10T13:10:45;17.38;;;12.57;;
38715;SDS011;24833;49.324;8.694;2022-12-10T13:13:41;15.98;;;11.43;;
38715;SDS011;24833;49.324;8.694;2022-12-10T13:19:24;15.25;;;10.55;;
38715;SDS011;24833;49.324;8.694;2022-12-10T13:22:03;14.45;;;11.43;;
38715;SDS011;24833;49.324;8.694;2022-12-10T13:37:36;12.35;;;10.02;;
38715;SDS011;24833;49.324;8.694;2022-12-10T13:42:59;15.07;;;10.88;;
38715;SDS011;24833;49.324;8.694;2022-12-10T13:46:20;12.20;;;9.68;;
38715;SDS011;24833;49.324;8.694;2022-12-10T13:48:53;13.55;;;10.80;;
38715;SDS011;24833;49.324;8.694;2022-12-10T13:56:57;14.55;;;10.77;;
38715;SDS011;24833;49.324;8.694;2022-12-10T14:00:07;11.55;;;8.98;;
38715;SDS011;24833;49.324;8.694;2022-12-10T14:08:37;10.80;;;8.27;;
38715;SDS011;24833;49.324;8.694;2022-12-10T14:11:12;11.73;;;9.32;;
38715;SDS011;24833;49.324;8.694;2022-12-10T14:13:47;12.73;;;9.02;;
38715;SDS011;24833;49.324;8.694;2022-12-10T14:16:21;12.52;;;8.85;;
38715;SDS011;24833;49.324;8.694;2022-12-10T14:18:54;12.35;;;10.10;;
38715;SDS011;24833;49.324;8.694;2022-12-10T14:21:35;12.05;;;9.27;;
38715;SDS011;24833;49.324;8.694;2022-12-10T14:24:05;11.05;;;9.00;;
38715;SDS011;24833;49.324;8.694;2022-12-10T14:26:55;13.50;;;9.90;;
38715;SDS011;24833;49.324;8.694;2022-12-10T14:29:44;13.40;;;9.30;;
38715;SDS011;24833;49.324;8.694;2022-12-10T14:32:14;13.40;;;9.90;;
38715;SDS011;24833;49.324;8.694;2022-12-10T14:34:52;11.68;;;9.27;;
38715;SDS011;24833;49.324;8.694;2022-12-10T14:37:31;13.85;;;10.23;;
38715;SDS011;24833;49.324;8.694;2022-12-10T14:40:04;14.40;;;10.38;;
38715;SDS011;24833;49.324;8.694;2022-12-10T14:42:34;14.60;;;10.57;;
38715;SDS011;24833;49.324;8.694;2022-12-10T14:45:04;13.02;;;9.15;;
38715;SDS011;24833;49.324;8.694;2022-12-10T14:47:35;13.70;;;9.80;;
38715;SDS011;24833;49.324;8.694;2022-12-10T14:50:14;11.38;;;9.30;;
38715;SDS011;24833;49.324;8.694;2022-12-10T14:52:44;10.98;;;8.25;;
38715;SDS011;24833;49.324;8.694;2022-12-10T14:55:19;12.48;;;9.20;;
38715;SDS011;24833;49.324;8.694;2022-12-10T14:57:59;13.45;;;8.75;;
38715;SDS011;24833;49.324;8.694;2022-12-10T15:00:30;12.88;;;8.35;;
38715;SDS011;24833;49.324;8.694;2022-12-10T15:03:00;12.02;;;8.38;;
38715;SDS011;24833;49.324;8.694;2022-12-10T15:05:34;10.93;;;8.10;;
38715;SDS011;24833;49.324;8.694;2022-12-10T15:08:07;10.80;;;8.48;;
38715;SDS011;24833;49.324;8.694;2022-12-10T15:10:43;11.00;;;8.77;;
38715;SDS011;24833;49.324;8.694;2022-12-10T15:13:17;11.80;;;8.32;;
38715;SDS011;24833;49.324;8.694;2022-12-10T15:16:13;11.43;;;8.50;;
38715;SDS011;24833;49.324;8.694;2022-12-10T15:18:55;11.80;;;7.88;;
38715;SDS011;24833;49.324;8.694;2022-12-10T15:21:46;12.27;;;8.23;;
38715;SDS011;24833;49.324;8.694;2022-12-10T15:24:19;10.73;;;8.48;;
38715;SDS011;24833;49.324;8.694;2022-12-10T15:26:52;12.45;;;9.30;;
38715;SDS011;24833;49.324;8.694;2022-12-10T15:31:55;11.02;;;8.13;;
38715;SDS011;24833;49.324;8.694;2022-12-10T15:34:26;15.20;;;9.10;;
38715;SDS011;24833;49.324;8.694;2022-12-10T15:37:13;11.85;;;8.73;;
38715;SDS011;24833;49.324;8.694;2022-12-10T15:39:47;10.82;;;7.93;;
38715;SDS011;24833;49.324;8.694;2022-12-10T15:45:26;11.77;;;8.82;;
38715;SDS011;24833;49.324;8.694;2022-12-10T15:48:07;11.00;;;8.38;;
38715;SDS011;24833;49.324;8.694;2022-12-10T15:50:39;10.98;;;9.02;;
38715;SDS011;24833;49.324;8.694;2022-12-10T15:53:12;11.60;;;9.13;;
38715;SDS011;24833;49.324;8.694;2022-12-10T15:55:46;12.18;;;8.85;;
38715;SDS011;24833;49.324;8.694;2022-12-10T15:58:14;12.93;;;8.85;;
38715;SDS011;24833;49.324;8.694;2022-12-10T16:00:41;12.82;;;9.32;;
38715;SDS011;24833;49.324;8.694;2022-12-10T16:03:14;13.93;;;9.65;;
38715;SDS011;24833;49.324;8.694;2022-12-10T16:05:43;12.50;;;9.02;;
38715;SDS011;24833;49.324;8.694;2022-12-10T16:08:28;12.75;;;8.93;;
38715;SDS011;24833;49.324;8.694;2022-12-10T16:10:58;14.07;;;10.80;;
38715;SDS011;24833;49.324;8.694;2022-12-10T16:13:32;14.23;;;10.85;;
38715;SDS011;24833;49.324;8.694;2022-12-10T16:16:07;15.02;;;11.07;;
38715;SDS011;24833;49.324;8.694;2022-12-10T16:18:36;13.18;;;10.35;;
38715;SDS011;24833;49.324;8.694;2022-12-10T16:21:04;15.35;;;10.73;;
38715;SDS011;24833;49.324;8.694;2022-12-10T16:23:33;14.50;;;10.63;;
38715;SDS011;24833;49.324;8.694;2022-12-10T16:26:00;14.98;;;10.70;;
38715;SDS011;24833;49.324;8.694;2022-12-10T16:28:28;15.35;;;10.43;;
38715;SDS011;24833;49.324;8.694;2022-12-10T16:30:56;16.98;;;11.27;;
38715;SDS011;24833;49.324;8.694;2022-12-10T16:33:26;16.35;;;11.02;;
38715;SDS011;24833;49.324;8.694;2022-12-10T16:35:54;15.98;;;10.52;;
38715;SDS011;24833;49.324;8.694;2022-12-10T16:38:23;15.65;;;10.85;;
38715;SDS011;24833;49.324;8.694;2022-12-10T16:40:51;16.10;;;11.35;;
38715;SDS011;24833;49.324;8.694;2022-12-10T16:43:23;15.50;;;10.30;;
38715;SDS011;24833;49.324;8.694;2022-12-10T16:45:54;13.95;;;10.07;;
38715;SDS011;24833;49.324;8.694;2022-12-10T16:48:21;16.90;;;10.85;;